createdAt,value
2022-08-27T00:00:39.918Z,100.00
2022-08-27T00:01:43.143Z,100.00
2022-08-27T00:02:47.393Z,100.00
2022-08-27T00:03:50.168Z,100.00
2022-08-27T00:04:53.399Z,100.00
2022-08-27T00:05:55.490Z,100.00
2022-08-27T00:07:00.083Z,100.00
2022-08-27T00:08:02.417Z,100.00
2022-08-27T00:09:06.138Z,100.00
2022-08-27T00:10:10.599Z,100.00
2022-08-27T00:11:14.966Z,100.00
2022-08-27T00:12:17.233Z,100.00
2022-08-27T00:13:20.349Z,100.00
2022-08-27T00:14:22.848Z,100.00
2022-08-27T00:15:26.366Z,100.00
2022-08-27T00:16:28.972Z,100.00
2022-08-27T00:17:35.193Z,100.00
2022-08-27T00:18:39.101Z,100.00
2022-08-27T00:19:42.295Z,100.00
2022-08-27T00:20:44.561Z,100.00
2022-08-27T00:21:47.611Z,100.00
2022-08-27T00:22:51.079Z,100.00
2022-08-27T00:23:54.636Z,100.00
2022-08-27T00:24:56.674Z,100.00
2022-08-27T00:26:00.589Z,100.00
2022-08-27T00:27:02.830Z,100.00
2022-08-27T00:28:06.296Z,100.00
2022-08-27T00:29:08.560Z,100.00
2022-08-27T00:30:15.585Z,100.00
2022-08-27T00:31:18.091Z,100.00
2022-08-27T00:32:21.213Z,100.00
2022-08-27T00:33:24.162Z,100.00
2022-08-27T00:34:27.708Z,100.00
2022-08-27T00:35:29.809Z,100.00
2022-08-27T00:36:32.944Z,100.00
2022-08-27T00:37:35.330Z,100.00
2022-08-27T00:38:41.169Z,100.00
2022-08-27T00:39:43.331Z,100.00
2022-08-27T00:40:46.851Z,100.00
2022-08-27T00:41:49.080Z,100.00
2022-08-27T00:42:52.187Z,100.00
2022-08-27T00:43:57.415Z,100.00
2022-08-27T00:45:00.772Z,100.00
2022-08-27T00:46:08.083Z,100.00
2022-08-27T00:47:14.950Z,100.00
2022-08-27T00:48:21.212Z,100.00
2022-08-27T00:49:28.890Z,100.00
2022-08-27T00:50:34.143Z,100.00
2022-08-27T00:51:38.665Z,100.00
2022-08-27T00:52:45.270Z,100.00
2022-08-27T00:53:50.426Z,100.00
2022-08-27T00:54:57.288Z,100.00
2022-08-27T00:56:05.852Z,100.00
2022-08-27T00:57:08.207Z,100.00
2022-08-27T00:58:17.851Z,100.00
2022-08-27T00:59:23.635Z,100.00
2022-08-27T01:00:26.891Z,100.00
2022-08-27T01:01:31.910Z,100.00
2022-08-27T01:02:38.916Z,100.00
2022-08-27T01:03:45.076Z,100.00
2022-08-27T01:04:55.254Z,100.00
2022-08-27T01:05:59.759Z,100.00
2022-08-27T01:07:03.523Z,100.00
2022-08-27T01:08:10.712Z,100.00
2022-08-27T01:09:17.264Z,100.00
2022-08-27T01:10:23.932Z,100.00
2022-08-27T01:11:26.305Z,100.00
2022-08-27T01:12:32.830Z,100.00
2022-08-27T01:13:59.156Z,100.00
2022-08-27T01:14:58.816Z,100.00
2022-08-27T01:16:01.622Z,100.00
2022-08-27T01:17:07.253Z,100.00
2022-08-27T01:18:13.367Z,100.00
2022-08-27T01:19:24.092Z,100.00
2022-08-27T01:20:28.452Z,100.00
2022-08-27T01:21:37.120Z,100.00
2022-08-27T01:22:50.905Z,100.00
2022-08-27T01:23:59.453Z,100.00
2022-08-27T01:25:09.089Z,100.00
2022-08-27T01:26:14.879Z,100.00
2022-08-27T01:27:21.987Z,100.00
2022-08-27T01:28:29.242Z,100.00
2022-08-27T01:29:41.037Z,100.00
2022-08-27T01:30:44.509Z,100.00
2022-08-27T01:31:46.641Z,100.00
2022-08-27T01:32:50.311Z,100.00
2022-08-27T01:33:57.407Z,100.00
2022-08-27T01:35:01.893Z,100.00
2022-08-27T01:36:05.773Z,100.00
2022-08-27T01:37:09.476Z,100.00
2022-08-27T01:38:30.015Z,100.00
2022-08-27T01:39:33.906Z,100.00
2022-08-27T01:40:38.403Z,100.00
2022-08-27T01:41:40.523Z,100.00
2022-08-27T01:42:46.176Z,100.00
2022-08-27T01:43:48.871Z,100.00
2022-08-27T01:44:54.670Z,100.00
2022-08-27T01:45:57.007Z,100.00
2022-08-27T01:47:00.173Z,100.00
2022-08-27T01:48:04.473Z,100.00
2022-08-27T01:49:06.541Z,100.00
2022-08-27T01:50:14.054Z,100.00
2022-08-27T01:51:16.363Z,100.00
2022-08-27T01:52:27.024Z,100.00
2022-08-27T01:53:28.915Z,100.00
2022-08-27T01:54:32.087Z,100.00
2022-08-27T01:55:35.550Z,100.00
2022-08-27T01:56:38.998Z,100.00
2022-08-27T01:57:42.338Z,100.00
2022-08-27T01:58:45.607Z,100.00
2022-08-27T01:59:48.861Z,100.00
2022-08-27T02:00:56.537Z,100.00
2022-08-27T02:02:00.602Z,100.00
2022-08-27T02:03:04.293Z,100.00
2022-08-27T02:04:06.499Z,100.00
2022-08-27T02:05:10.477Z,100.00
2022-08-27T02:06:12.729Z,100.00
2022-08-27T02:07:15.867Z,100.00
2022-08-27T02:08:18.673Z,100.00
2022-08-27T02:09:21.869Z,100.00
2022-08-27T02:10:26.985Z,100.00
2022-08-27T02:11:30.082Z,100.00
2022-08-27T02:12:33.630Z,100.00
2022-08-27T02:13:37.009Z,100.00
2022-08-27T02:14:39.075Z,100.00
2022-08-27T02:15:43.296Z,100.00
2022-08-27T02:16:52.093Z,100.00
2022-08-27T02:17:56.694Z,100.00
2022-08-27T02:18:58.791Z,100.00
2022-08-27T02:20:03.249Z,100.00
2022-08-27T02:21:05.919Z,100.00
2022-08-27T02:22:09.005Z,100.00
2022-08-27T02:23:11.574Z,100.00
2022-08-27T02:24:14.850Z,100.00
2022-08-27T02:25:20.128Z,100.00
2022-08-27T02:26:23.860Z,100.00
2022-08-27T02:27:25.923Z,100.00
2022-08-27T02:28:30.501Z,100.00
2022-08-27T02:29:33.824Z,100.00
2022-08-27T02:30:37.681Z,100.00
2022-08-27T02:31:42.155Z,100.00
2022-08-27T02:32:47.380Z,100.00
2022-08-27T02:33:49.504Z,100.00
2022-08-27T02:34:52.621Z,100.00
2022-08-27T02:35:55.117Z,100.00
2022-08-27T02:36:58.531Z,100.00
2022-08-27T02:38:00.969Z,100.00
2022-08-27T02:39:04.828Z,100.00
2022-08-27T02:40:08.889Z,100.00
2022-08-27T02:41:12.058Z,100.00
2022-08-27T02:42:14.146Z,100.00
2022-08-27T02:43:25.030Z,100.00
2022-08-27T02:44:29.129Z,100.00
2022-08-27T02:45:33.749Z,100.00
2022-08-27T02:46:38.764Z,100.00
2022-08-27T02:47:42.622Z,100.00
2022-08-27T02:48:44.744Z,100.00
2022-08-27T02:49:47.953Z,100.00
2022-08-27T02:50:50.111Z,100.00
2022-08-27T02:51:55.006Z,100.00
2022-08-27T02:52:57.928Z,100.00
2022-08-27T02:54:01.995Z,100.00
2022-08-27T02:55:04.982Z,100.00
2022-08-27T02:56:09.902Z,100.00
2022-08-27T02:57:12.429Z,100.00
2022-08-27T02:58:16.961Z,100.00
2022-08-27T02:59:19.725Z,100.00
2022-08-27T03:00:26.074Z,100.00
2022-08-27T03:01:28.262Z,100.00
2022-08-27T03:02:31.425Z,100.00
2022-08-27T03:03:33.700Z,100.00
2022-08-27T03:04:36.837Z,100.00
2022-08-27T03:05:39.518Z,100.00
2022-08-27T03:06:42.647Z,100.00
2022-08-27T03:07:45.336Z,100.00
2022-08-27T03:08:53.095Z,100.00
2022-08-27T03:09:55.647Z,100.00
2022-08-27T03:10:58.843Z,100.00
2022-08-27T03:12:01.694Z,100.00
2022-08-27T03:13:05.042Z,100.00
2022-08-27T03:14:07.189Z,100.00
2022-08-27T03:15:14.237Z,100.00
2022-08-27T03:16:17.923Z,100.00
2022-08-27T03:17:38.450Z,100.00
2022-08-27T03:18:41.648Z,100.00
2022-08-27T03:19:43.806Z,100.00
2022-08-27T03:20:49.907Z,100.00
2022-08-27T03:21:54.353Z,100.00
2022-08-27T03:22:58.028Z,100.00
2022-08-27T03:24:09.399Z,100.00
2022-08-27T03:25:15.016Z,100.00
2022-08-27T03:26:17.670Z,100.00
2022-08-27T03:27:20.725Z,100.00
2022-08-27T03:28:25.951Z,100.00
2022-08-27T03:29:28.412Z,100.00
2022-08-27T03:30:31.584Z,100.00
2022-08-27T03:31:35.135Z,100.00
2022-08-27T03:32:38.899Z,100.00
2022-08-27T03:33:41.117Z,100.00
2022-08-27T03:34:44.247Z,100.00
2022-08-27T03:35:51.530Z,100.00
2022-08-27T03:36:54.838Z,100.00
2022-08-27T03:37:56.994Z,100.00
2022-08-27T03:39:00.286Z,100.00
2022-08-27T03:40:04.095Z,100.00
2022-08-27T03:41:08.319Z,100.00
2022-08-27T03:42:10.523Z,100.00
2022-08-27T03:43:14.612Z,100.00
2022-08-27T03:44:21.558Z,100.00
2022-08-27T03:45:27.305Z,100.00
2022-08-27T03:46:31.047Z,100.00
2022-08-27T03:47:35.874Z,100.00
2022-08-27T03:48:38.450Z,100.00
2022-08-27T03:49:41.791Z,100.00
2022-08-27T03:50:46.887Z,100.00
2022-08-27T03:51:50.785Z,100.00
2022-08-27T03:52:52.905Z,100.00
2022-08-27T03:53:56.175Z,100.00
2022-08-27T03:54:59.127Z,100.00
2022-08-27T03:56:02.225Z,100.00
2022-08-27T03:57:05.573Z,100.00
2022-08-27T03:58:09.221Z,100.00
2022-08-27T03:59:11.427Z,100.00
2022-08-27T04:00:15.232Z,100.00
2022-08-27T04:01:19.420Z,100.00
2022-08-27T04:02:22.568Z,100.00
2022-08-27T04:03:27.188Z,100.00
2022-08-27T04:04:31.073Z,100.00
2022-08-27T04:05:34.417Z,100.00
2022-08-27T04:06:36.744Z,100.00
2022-08-27T04:07:40.088Z,100.00
2022-08-27T04:08:42.267Z,100.00
2022-08-27T04:09:45.334Z,100.00
2022-08-27T04:10:47.835Z,100.00
2022-08-27T04:11:51.032Z,100.00
2022-08-27T04:12:53.498Z,100.00
2022-08-27T04:13:58.276Z,100.00
2022-08-27T04:15:00.433Z,100.00
2022-08-27T04:16:06.321Z,100.00
2022-08-27T04:17:08.406Z,100.00
2022-08-27T04:18:12.152Z,100.00
2022-08-27T04:19:15.761Z,100.00
2022-08-27T04:20:35.081Z,100.00
2022-08-27T04:21:37.683Z,100.00
2022-08-27T04:22:40.955Z,100.00
2022-08-27T04:23:43.368Z,100.00
2022-08-27T04:24:46.469Z,100.00
2022-08-27T04:25:48.584Z,100.00
2022-08-27T04:26:51.575Z,100.00
2022-08-27T04:27:53.920Z,100.00
2022-08-27T04:28:58.835Z,100.00
2022-08-27T04:30:02.211Z,100.00
2022-08-27T04:31:05.520Z,100.00
2022-08-27T04:32:07.753Z,100.00
2022-08-27T04:33:10.896Z,100.00
2022-08-27T04:34:13.023Z,100.00
2022-08-27T04:35:17.871Z,100.00
2022-08-27T04:36:20.457Z,100.00
2022-08-27T04:37:23.716Z,100.00
2022-08-27T04:38:26.019Z,100.00
2022-08-27T04:39:32.797Z,100.00
2022-08-27T04:41:00.582Z,100.00
2022-08-27T04:42:03.665Z,100.00
2022-08-27T04:43:05.757Z,100.00
2022-08-27T04:44:10.898Z,100.00
2022-08-27T04:45:14.004Z,100.00
2022-08-27T04:46:20.762Z,100.00
2022-08-27T04:47:23.841Z,100.00
2022-08-27T04:48:26.132Z,100.00
2022-08-27T04:49:30.448Z,100.00
2022-08-27T04:50:40.464Z,100.00
2022-08-27T04:51:44.429Z,100.00
2022-08-27T04:52:47.844Z,100.00
2022-08-27T04:53:51.344Z,100.00
2022-08-27T04:54:53.795Z,100.00
2022-08-27T04:55:58.413Z,100.00
2022-08-27T04:57:01.069Z,100.00
2022-08-27T04:58:04.229Z,100.00
2022-08-27T04:59:08.807Z,100.00
2022-08-27T05:00:12.833Z,100.00
2022-08-27T05:01:17.384Z,100.00
2022-08-27T05:02:20.501Z,100.00
2022-08-27T05:03:24.308Z,100.00
2022-08-27T05:04:27.598Z,100.00
2022-08-27T05:05:29.738Z,100.00
2022-08-27T05:06:34.617Z,100.00
2022-08-27T05:07:37.788Z,100.00
2022-08-27T05:08:40.728Z,100.00
2022-08-27T05:09:43.753Z,100.00
2022-08-27T05:10:47.949Z,100.00
2022-08-27T05:11:52.161Z,100.00
2022-08-27T05:12:56.873Z,100.00
2022-08-27T05:14:04.728Z,100.00
2022-08-27T05:15:07.657Z,100.00
2022-08-27T05:16:13.779Z,100.00
2022-08-27T05:17:15.847Z,100.00
2022-08-27T05:18:18.967Z,100.00
2022-08-27T05:19:21.819Z,100.00
2022-08-27T05:20:25.036Z,100.00
2022-08-27T05:21:29.225Z,100.00
2022-08-27T05:22:33.847Z,100.00
2022-08-27T05:23:36.742Z,100.00
2022-08-27T05:24:41.636Z,100.00
2022-08-27T05:25:45.978Z,100.00
2022-08-27T05:26:50.440Z,100.00
2022-08-27T05:27:52.909Z,100.00
2022-08-27T05:28:56.284Z,100.00
2022-08-27T05:29:58.436Z,100.00
2022-08-27T05:31:05.924Z,100.00
2022-08-27T05:32:07.992Z,100.00
2022-08-27T05:33:11.658Z,100.00
2022-08-27T05:34:18.924Z,100.00
2022-08-27T05:35:26.743Z,100.00
2022-08-27T05:36:33.185Z,100.00
2022-08-27T05:37:37.120Z,100.00
2022-08-27T05:38:40.184Z,100.00
2022-08-27T05:39:43.249Z,100.00
2022-08-27T05:40:48.031Z,100.00
2022-08-27T05:41:52.427Z,100.00
2022-08-27T05:42:54.869Z,100.00
2022-08-27T05:43:59.354Z,100.00
2022-08-27T05:45:02.757Z,100.00
2022-08-27T05:46:07.136Z,100.00
2022-08-27T05:47:10.120Z,100.00
2022-08-27T05:48:14.017Z,100.00
2022-08-27T05:49:16.469Z,100.00
2022-08-27T05:50:23.439Z,100.00
2022-08-27T05:51:28.415Z,100.00
2022-08-27T05:52:31.522Z,100.00
2022-08-27T05:53:35.284Z,100.00
2022-08-27T05:54:38.567Z,100.00
2022-08-27T05:55:42.519Z,100.00
2022-08-27T05:56:46.042Z,100.00
2022-08-27T05:57:48.117Z,100.00
2022-08-27T05:59:08.961Z,100.00
2022-08-27T06:00:30.112Z,100.00
2022-08-27T06:01:36.167Z,100.00
2022-08-27T06:02:39.396Z,100.00
2022-08-27T06:03:42.572Z,100.00
2022-08-27T06:04:45.727Z,100.00
2022-08-27T06:05:47.885Z,100.00
2022-08-27T06:06:52.163Z,100.00
2022-08-27T06:07:54.195Z,100.00
2022-08-27T06:08:58.595Z,100.00
2022-08-27T06:10:02.111Z,100.00
2022-08-27T06:11:06.348Z,100.00
2022-08-27T06:12:10.278Z,100.00
2022-08-27T06:13:12.400Z,100.00
2022-08-27T06:14:15.594Z,100.00
2022-08-27T06:15:17.886Z,100.00
2022-08-27T06:16:21.276Z,100.00
2022-08-27T06:17:23.439Z,100.00
2022-08-27T06:18:26.491Z,100.00
2022-08-27T06:19:29.005Z,100.00
2022-08-27T06:20:32.334Z,100.00
2022-08-27T06:21:34.838Z,100.00
2022-08-27T06:22:37.991Z,100.00
2022-08-27T06:23:40.103Z,100.00
2022-08-27T06:24:45.006Z,100.00
2022-08-27T06:25:47.117Z,100.00
2022-08-27T06:26:50.301Z,100.00
2022-08-27T06:27:52.456Z,100.00
2022-08-27T06:28:55.725Z,100.00
2022-08-27T06:29:57.858Z,100.00
2022-08-27T06:31:05.231Z,100.00
2022-08-27T06:32:09.482Z,100.00
2022-08-27T06:33:11.560Z,100.00
2022-08-27T06:34:16.547Z,100.00
2022-08-27T06:35:18.879Z,100.00
2022-08-27T06:36:25.461Z,100.00
2022-08-27T06:37:29.269Z,100.00
2022-08-27T06:38:31.785Z,100.00
2022-08-27T06:39:36.250Z,100.00
2022-08-27T06:40:42.266Z,100.00
2022-08-27T06:41:45.859Z,100.00
2022-08-27T06:42:48.196Z,100.00
2022-08-27T06:43:51.953Z,100.00
2022-08-27T06:44:54.621Z,100.00
2022-08-27T06:45:57.915Z,100.00
2022-08-27T06:47:00.094Z,100.00
2022-08-27T06:48:03.264Z,100.00
2022-08-27T06:49:05.635Z,100.00
2022-08-27T06:50:09.473Z,100.00
2022-08-27T06:51:14.059Z,100.00
2022-08-27T06:52:17.149Z,100.00
2022-08-27T06:53:19.242Z,100.00
2022-08-27T06:54:27.909Z,100.00
2022-08-27T06:55:33.092Z,100.00
2022-08-27T06:56:40.815Z,100.00
2022-08-27T06:57:43.216Z,100.00
2022-08-27T06:58:46.810Z,100.00
2022-08-27T06:59:49.829Z,100.00
2022-08-27T07:00:51.899Z,100.00
2022-08-27T07:01:55.391Z,100.00
2022-08-27T07:02:57.554Z,100.00
2022-08-27T07:04:04.238Z,100.00
2022-08-27T07:05:09.412Z,100.00
2022-08-27T07:06:13.289Z,100.00
2022-08-27T07:07:30.216Z,100.00
2022-08-27T07:08:39.665Z,100.00
2022-08-27T07:09:41.750Z,100.00
2022-08-27T07:10:44.841Z,100.00
2022-08-27T07:11:48.354Z,100.00
2022-08-27T07:12:51.419Z,100.00
2022-08-27T07:13:53.591Z,100.00
2022-08-27T07:14:56.698Z,100.00
2022-08-27T07:15:59.353Z,100.00
2022-08-27T07:17:03.161Z,100.00
2022-08-27T07:18:05.739Z,100.00
2022-08-27T07:19:08.897Z,100.00
2022-08-27T07:20:13.760Z,100.00
2022-08-27T07:21:16.871Z,100.00
2022-08-27T07:22:18.943Z,100.00
2022-08-27T07:23:22.068Z,100.00
2022-08-27T07:24:24.521Z,100.00
2022-08-27T07:25:27.668Z,100.00
2022-08-27T07:26:29.838Z,100.00
2022-08-27T07:27:34.392Z,100.00
2022-08-27T07:28:38.175Z,100.00
2022-08-27T07:29:41.575Z,100.00
2022-08-27T07:30:43.903Z,100.00
2022-08-27T07:31:47.259Z,100.00
2022-08-27T07:32:49.415Z,100.00
2022-08-27T07:33:53.382Z,100.00
2022-08-27T07:34:55.554Z,100.00
2022-08-27T07:35:58.866Z,100.00
2022-08-27T07:37:01.974Z,100.00
2022-08-27T07:38:04.175Z,100.00
2022-08-27T07:39:07.768Z,100.00
2022-08-27T07:40:14.412Z,100.00
2022-08-27T07:41:18.157Z,100.00
2022-08-27T07:42:38.755Z,100.00
2022-08-27T07:44:02.130Z,100.00
2022-08-27T07:45:05.782Z,100.00
2022-08-27T07:46:08.657Z,100.00
2022-08-27T07:47:11.879Z,100.00
2022-08-27T07:48:14.250Z,100.00
2022-08-27T07:49:17.772Z,100.00
2022-08-27T07:50:20.885Z,100.00
2022-08-27T07:51:26.091Z,100.00
2022-08-27T07:52:29.239Z,100.00
2022-08-27T07:53:32.376Z,100.00
2022-08-27T07:54:35.495Z,100.00
2022-08-27T07:55:37.961Z,100.00
2022-08-27T07:56:41.324Z,100.00
2022-08-27T07:57:44.853Z,100.00
2022-08-27T07:58:48.301Z,100.00
2022-08-27T07:59:53.179Z,100.00
2022-08-27T08:00:56.176Z,100.00
2022-08-27T08:01:59.260Z,100.00
2022-08-27T08:03:01.429Z,100.00
2022-08-27T08:04:05.261Z,100.00
2022-08-27T08:05:08.086Z,100.00
2022-08-27T08:06:14.175Z,100.00
2022-08-27T08:07:16.344Z,100.00
2022-08-27T08:08:19.437Z,100.00
2022-08-27T08:09:23.854Z,100.00
2022-08-27T08:10:27.426Z,100.00
2022-08-27T08:11:29.543Z,100.00
2022-08-27T08:12:32.713Z,100.00
2022-08-27T08:13:35.161Z,100.00
2022-08-27T08:14:42.799Z,100.00
2022-08-27T08:15:46.359Z,100.00
2022-08-27T08:16:49.606Z,100.00
2022-08-27T08:17:51.749Z,100.00
2022-08-27T08:18:55.053Z,100.00
2022-08-27T08:20:18.536Z,100.00
2022-08-27T08:21:20.591Z,100.00
2022-08-27T08:22:22.711Z,99.76
2022-08-27T08:23:25.795Z,100.00
2022-08-27T08:24:28.908Z,100.00
2022-08-27T08:25:38.462Z,99.93
2022-08-27T08:26:42.203Z,100.00
2022-08-27T08:27:45.123Z,100.00
2022-08-27T08:28:48.226Z,99.89
2022-08-27T08:29:51.902Z,100.00
2022-08-27T08:30:55.691Z,100.00
2022-08-27T08:31:57.888Z,100.00
2022-08-27T08:33:01.010Z,100.00
2022-08-27T08:34:03.588Z,100.00
2022-08-27T08:35:08.159Z,100.00
2022-08-27T08:36:11.823Z,100.00
2022-08-27T08:37:15.398Z,100.00
2022-08-27T08:38:18.239Z,100.00
2022-08-27T08:39:21.749Z,100.00
2022-08-27T08:40:34.584Z,99.89
2022-08-27T08:41:42.892Z,100.00
2022-08-27T08:42:53.725Z,99.95
2022-08-27T08:43:56.489Z,99.98
2022-08-27T08:45:04.425Z,99.72
2022-08-27T08:46:14.504Z,99.53
2022-08-27T08:47:21.532Z,99.37
2022-08-27T08:48:27.023Z,99.29
2022-08-27T08:51:02.186Z,99.28
2022-08-27T08:52:18.232Z,99.27
2022-08-27T08:53:43.849Z,99.02
2022-08-27T08:54:46.379Z,99.19
2022-08-27T08:55:53.994Z,99.17
2022-08-27T08:56:59.686Z,99.17
2022-08-27T08:58:12.620Z,98.99
2022-08-27T08:59:21.305Z,98.46
2022-08-27T09:00:24.176Z,98.56
2022-08-27T09:01:27.921Z,98.23
2022-08-27T09:02:30.054Z,98.23
2022-08-27T09:03:36.357Z,98.39
2022-08-27T09:04:38.651Z,98.00
2022-08-27T09:05:46.853Z,98.09
2022-08-27T09:06:54.722Z,97.54
2022-08-27T09:08:31.102Z,97.38
2022-08-27T09:09:38.340Z,97.58
2022-08-27T09:10:44.798Z,97.84
2022-08-27T09:11:57.563Z,97.82
2022-08-27T09:13:03.527Z,97.55
2022-08-27T09:14:21.276Z,97.80
2022-08-27T09:15:30.076Z,97.81
2022-08-27T09:16:32.577Z,97.59
2022-08-27T09:17:36.398Z,97.71
2022-08-27T09:18:40.852Z,97.56
2022-08-27T09:19:44.349Z,97.70
2022-08-27T09:20:50.983Z,97.62
2022-08-27T09:22:02.201Z,97.70
2022-08-27T09:23:11.937Z,97.35
2022-08-27T09:24:23.621Z,97.21
2022-08-27T09:25:31.742Z,96.89
2022-08-27T09:26:37.926Z,96.76
2022-08-27T09:27:42.952Z,96.78
2022-08-27T09:29:03.707Z,96.93
2022-08-27T09:30:10.649Z,96.82
2022-08-27T09:31:15.998Z,96.51
2022-08-27T09:32:24.431Z,96.76
2022-08-27T09:33:26.597Z,96.95
2022-08-27T09:34:47.443Z,97.07
2022-08-27T09:35:52.220Z,97.12
2022-08-27T09:37:07.426Z,97.10
2022-08-27T09:38:10.130Z,96.93
2022-08-27T09:39:15.021Z,96.99
2022-08-27T09:40:24.769Z,97.03
2022-08-27T09:41:29.927Z,97.04
2022-08-27T09:42:38.508Z,97.20
2022-08-27T09:43:43.812Z,97.11
2022-08-27T09:44:52.902Z,97.19
2022-08-27T09:45:59.492Z,97.10
2022-08-27T09:47:04.786Z,96.86
2022-08-27T09:48:10.927Z,96.79
2022-08-27T09:49:16.480Z,96.48
2022-08-27T09:50:22.065Z,96.10
2022-08-27T09:51:27.648Z,95.85
2022-08-27T09:52:37.915Z,95.01
2022-08-27T09:53:50.873Z,95.29
2022-08-27T09:54:55.811Z,95.38
2022-08-27T09:56:00.835Z,95.11
2022-08-27T09:57:02.881Z,95.30
2022-08-27T09:58:07.771Z,95.23
2022-08-27T09:59:12.674Z,95.06
2022-08-27T10:00:18.760Z,95.19
2022-08-27T10:01:22.919Z,95.20
2022-08-27T10:02:27.811Z,95.07
2022-08-27T10:03:33.450Z,94.98
2022-08-27T10:04:50.339Z,94.94
2022-08-27T10:05:55.284Z,94.83
2022-08-27T10:06:57.386Z,94.62
2022-08-27T10:08:06.218Z,93.63
2022-08-27T10:09:13.390Z,94.13
2022-08-27T10:10:22.413Z,94.27
2022-08-27T10:11:31.312Z,94.38
2022-08-27T10:12:42.799Z,94.22
2022-08-27T10:13:53.844Z,92.58
2022-08-27T10:15:00.454Z,93.19
2022-08-27T10:16:20.731Z,92.94
2022-08-27T10:17:31.019Z,92.88
2022-08-27T10:18:41.434Z,92.21
2022-08-27T10:19:57.433Z,91.88
2022-08-27T10:21:09.935Z,91.93
2022-08-27T10:22:20.528Z,91.10
2022-08-27T10:23:36.482Z,90.65
2022-08-27T10:24:48.943Z,91.06
2022-08-27T10:26:04.279Z,90.88
2022-08-27T10:27:14.197Z,90.19
2022-08-27T10:28:28.470Z,89.57
2022-08-27T10:29:36.064Z,89.59
2022-08-27T10:30:52.133Z,89.43
2022-08-27T10:32:07.159Z,89.43
2022-08-27T10:33:23.268Z,89.32
2022-08-27T10:34:34.282Z,89.28
2022-08-27T10:35:54.736Z,88.85
2022-08-27T10:37:09.954Z,88.54
2022-08-27T10:38:18.223Z,88.48
2022-08-27T10:39:38.185Z,88.02
2022-08-27T10:40:45.767Z,88.31
2022-08-27T10:41:56.107Z,88.25
2022-08-27T10:43:10.383Z,88.41
2022-08-27T10:44:27.065Z,88.16
2022-08-27T10:45:42.629Z,88.27
2022-08-27T10:47:03.713Z,87.94
2022-08-27T10:48:14.691Z,88.08
2022-08-27T10:49:23.828Z,87.86
2022-08-27T10:50:33.120Z,87.78
2022-08-27T10:51:41.916Z,87.83
2022-08-27T10:52:51.574Z,87.92
2022-08-27T10:54:06.031Z,87.59
2022-08-27T10:55:19.002Z,87.33
2022-08-27T10:56:28.973Z,87.29
2022-08-27T10:57:58.731Z,86.95
2022-08-27T10:59:14.647Z,86.95
2022-08-27T11:00:19.732Z,86.70
2022-08-27T11:01:34.900Z,86.97
2022-08-27T11:02:42.992Z,86.72
2022-08-27T11:03:49.346Z,86.46
2022-08-27T11:04:55.086Z,86.47
2022-08-27T11:06:02.878Z,86.40
2022-08-27T11:07:09.276Z,86.32
2022-08-27T11:08:18.481Z,86.05
2022-08-27T11:09:22.759Z,85.94
2022-08-27T11:10:30.732Z,85.68
2022-08-27T11:13:06.584Z,85.89
2022-08-27T11:14:19.971Z,84.48
2022-08-27T11:15:28.027Z,85.00
2022-08-27T11:16:37.063Z,84.87
2022-08-27T11:17:45.126Z,84.65
2022-08-27T11:18:52.830Z,84.22
2022-08-27T11:20:01.458Z,84.27
2022-08-27T11:21:10.674Z,84.20
2022-08-27T11:22:26.219Z,83.79
2022-08-27T11:23:38.649Z,83.17
2022-08-27T11:24:47.861Z,82.66
2022-08-27T11:25:59.579Z,82.60
2022-08-27T11:27:07.587Z,82.25
2022-08-27T11:28:12.771Z,82.14
2022-08-27T11:29:22.295Z,81.99
2022-08-27T11:30:36.049Z,81.11
2022-08-27T11:31:45.781Z,80.87
2022-08-27T11:32:58.655Z,80.96
2022-08-27T11:34:08.025Z,80.75
2022-08-27T11:35:19.129Z,80.66
2022-08-27T11:37:02.739Z,80.43
2022-08-27T11:38:31.351Z,80.53
2022-08-27T11:40:07.876Z,80.37
2022-08-27T11:41:53.695Z,79.60
2022-08-27T11:43:00.278Z,79.44
2022-08-27T11:44:04.480Z,79.28
2022-08-27T11:45:11.772Z,79.26
2022-08-27T11:46:25.177Z,78.39
2022-08-27T11:47:29.689Z,78.09
2022-08-27T11:48:33.684Z,77.61
2022-08-27T11:49:44.863Z,76.90
2022-08-27T11:51:00.805Z,76.41
2022-08-27T11:52:05.388Z,76.73
2022-08-27T11:53:09.631Z,76.17
2022-08-27T11:54:26.341Z,75.60
2022-08-27T11:55:33.303Z,74.27
2022-08-27T11:56:42.141Z,75.31
2022-08-27T11:57:46.212Z,75.42
2022-08-27T11:58:52.744Z,75.61
2022-08-27T11:59:56.953Z,75.82
2022-08-27T12:01:04.335Z,75.74
2022-08-27T12:02:24.307Z,74.94
2022-08-27T12:03:31.622Z,74.85
2022-08-27T12:04:37.455Z,74.42
2022-08-27T12:05:44.598Z,74.47
2022-08-27T12:06:53.561Z,74.66
2022-08-27T12:07:57.694Z,74.29
2022-08-27T12:09:14.858Z,74.52
2022-08-27T12:10:43.511Z,73.79
2022-08-27T12:11:59.909Z,73.33
2022-08-27T12:13:12.292Z,72.81
2022-08-27T12:14:32.265Z,73.08
2022-08-27T12:15:47.981Z,72.43
2022-08-27T12:16:59.521Z,72.25
2022-08-27T12:18:11.249Z,72.36
2022-08-27T12:19:25.552Z,72.15
2022-08-27T12:20:39.557Z,71.95
2022-08-27T12:21:53.326Z,71.47
2022-08-27T12:23:24.675Z,71.46
2022-08-27T12:24:49.231Z,71.24
2022-08-27T12:26:01.304Z,70.84
2022-08-27T12:27:18.148Z,70.42
2022-08-27T12:28:26.785Z,70.42
2022-08-27T12:29:39.316Z,70.50
2022-08-27T12:30:51.994Z,70.14
2022-08-27T12:32:00.397Z,69.97
2022-08-27T12:33:13.144Z,69.78
2022-08-27T12:34:16.840Z,69.74
2022-08-27T12:35:27.620Z,69.88
2022-08-27T12:36:33.614Z,70.11
2022-08-27T12:37:41.129Z,69.59
2022-08-27T12:38:50.517Z,69.42
2022-08-27T12:39:56.932Z,68.83
2022-08-27T12:41:03.920Z,68.38
2022-08-27T12:42:16.488Z,68.12
2022-08-27T12:43:22.410Z,68.01
2022-08-27T12:44:27.614Z,67.12
2022-08-27T12:45:31.178Z,66.76
2022-08-27T12:46:36.864Z,66.95
2022-08-27T12:47:50.879Z,67.02
2022-08-27T12:48:57.112Z,66.70
2022-08-27T12:50:02.717Z,66.14
2022-08-27T12:51:15.389Z,65.64
2022-08-27T12:52:35.248Z,65.13
2022-08-27T12:53:44.471Z,65.45
2022-08-27T12:54:59.125Z,64.86
2022-08-27T12:56:20.644Z,64.28
2022-08-27T12:57:33.040Z,64.37
2022-08-27T12:58:50.810Z,64.50
2022-08-27T13:00:12.484Z,64.67
2022-08-27T13:01:36.764Z,63.79
2022-08-27T13:03:15.939Z,64.49
2022-08-27T13:04:22.899Z,64.61
2022-08-27T13:05:25.600Z,62.89
2022-08-27T13:06:33.052Z,62.59
2022-08-27T13:07:41.101Z,63.21
2022-08-27T13:08:44.363Z,63.08
2022-08-27T13:09:47.452Z,63.41
2022-08-27T13:10:50.047Z,63.24
2022-08-27T13:11:56.581Z,63.16
2022-08-27T13:13:08.434Z,62.46
2022-08-27T13:14:12.315Z,61.54
2022-08-27T13:15:17.332Z,60.85
2022-08-27T13:16:21.315Z,60.17
2022-08-27T13:17:25.977Z,59.18
2022-08-27T13:18:30.083Z,58.41
2022-08-27T13:19:35.857Z,58.04
2022-08-27T13:20:40.232Z,58.49
2022-08-27T13:21:50.092Z,58.19
2022-08-27T13:22:54.040Z,57.95
2022-08-27T13:24:00.405Z,57.77
2022-08-27T13:25:02.978Z,58.13
2022-08-27T13:26:10.141Z,56.75
2022-08-27T13:27:13.167Z,56.33
2022-08-27T13:28:21.094Z,55.28
2022-08-27T13:29:24.060Z,55.09
2022-08-27T13:30:35.943Z,54.48
2022-08-27T13:31:39.853Z,54.48
2022-08-27T13:32:42.268Z,54.40
2022-08-27T13:33:46.069Z,54.27
2022-08-27T13:34:48.453Z,54.88
2022-08-27T13:35:52.221Z,54.22
2022-08-27T13:36:58.313Z,53.94
2022-08-27T13:38:03.550Z,54.75
2022-08-27T13:39:07.426Z,54.33
2022-08-27T13:40:11.405Z,54.40
2022-08-27T13:41:25.028Z,54.60
2022-08-27T13:42:27.868Z,54.72
2022-08-27T13:43:38.665Z,53.13
2022-08-27T13:44:41.424Z,53.84
2022-08-27T13:45:54.510Z,53.98
2022-08-27T13:47:02.289Z,53.98
2022-08-27T13:48:05.685Z,54.08
2022-08-27T13:49:18.166Z,54.80
2022-08-27T13:50:24.153Z,54.74
2022-08-27T13:51:30.987Z,54.29
2022-08-27T13:52:35.741Z,54.14
2022-08-27T13:54:03.336Z,54.34
2022-08-27T13:55:12.057Z,54.72
2022-08-27T13:56:28.605Z,54.16
2022-08-27T13:57:44.246Z,54.65
2022-08-27T13:58:49.340Z,53.88
2022-08-27T13:59:52.720Z,53.57
2022-08-27T14:01:09.116Z,53.57